createdAt,value
2022-12-06T00:01:55.867Z,0.99
2022-12-06T00:04:57.626Z,0.95
2022-12-06T00:08:00.704Z,1.09
2022-12-06T00:11:03.234Z,1.04
2022-12-06T00:14:06.458Z,1.14
2022-12-06T00:17:08.137Z,1.07
2022-12-06T00:20:10.469Z,1.12
2022-12-06T00:23:13.561Z,1.13
2022-12-06T00:26:15.775Z,1.09
2022-12-06T00:29:18.244Z,1.03
2022-12-06T00:32:20.166Z,1.13
2022-12-06T00:35:21.870Z,1.09
2022-12-06T00:38:25.211Z,1.09
2022-12-06T00:41:26.904Z,1.10
2022-12-06T00:44:28.601Z,1.09
2022-12-06T00:47:30.247Z,1.12
2022-12-06T00:50:32.049Z,1.01
2022-12-06T00:53:35.280Z,1.05
2022-12-06T00:56:37.298Z,1.06
2022-12-06T00:59:39.031Z,1.02
2022-12-06T01:02:40.721Z,1.02
2022-12-06T01:05:43.039Z,1.11
2022-12-06T01:08:46.214Z,1.11
2022-12-06T01:11:47.887Z,1.14
2022-12-06T01:14:49.608Z,1.14
2022-12-06T01:17:51.370Z,1.18
2022-12-06T01:20:53.135Z,1.20
2022-12-06T01:23:56.683Z,1.24
2022-12-06T01:26:58.399Z,1.31
2022-12-06T01:30:00.209Z,1.27
2022-12-06T01:33:02.431Z,1.33
2022-12-06T01:36:04.654Z,1.23
2022-12-06T01:39:07.725Z,1.25
2022-12-06T01:42:09.654Z,1.19
2022-12-06T01:45:11.559Z,1.24
2022-12-06T01:48:13.331Z,1.26
2022-12-06T01:51:15.631Z,1.22
2022-12-06T01:54:19.666Z,1.26
2022-12-06T01:57:21.580Z,1.23
2022-12-06T02:00:23.287Z,1.27
2022-12-06T02:03:27.294Z,1.30
2022-12-06T02:06:30.144Z,1.31
2022-12-06T02:09:33.849Z,1.33
2022-12-06T02:12:35.663Z,1.42
2022-12-06T02:15:46.996Z,1.43
2022-12-06T02:18:51.498Z,1.42
2022-12-06T02:21:56.694Z,1.44
2022-12-06T02:25:07.931Z,1.32
2022-12-06T02:28:21.026Z,1.30
2022-12-06T02:31:27.228Z,1.36
2022-12-06T02:34:31.519Z,1.29
2022-12-06T02:37:36.841Z,1.20
2022-12-06T02:40:41.834Z,1.26
2022-12-06T02:43:46.387Z,1.31
2022-12-06T02:46:50.945Z,1.28
2022-12-06T02:49:53.587Z,1.35
2022-12-06T02:52:58.424Z,1.31
2022-12-06T02:56:00.673Z,1.26
2022-12-06T02:59:04.386Z,1.28
2022-12-06T03:02:10.542Z,1.27
2022-12-06T03:05:18.167Z,1.19
2022-12-06T03:08:27.823Z,1.09
2022-12-06T03:11:33.344Z,1.22
2022-12-06T03:14:37.778Z,1.20
2022-12-06T03:17:46.380Z,1.21
2022-12-06T03:20:51.855Z,1.28
2022-12-06T03:23:54.027Z,1.25
2022-12-06T03:26:57.256Z,1.31
2022-12-06T03:30:00.561Z,1.27
2022-12-06T03:33:04.895Z,1.24
2022-12-06T03:36:07.260Z,1.20
2022-12-06T03:39:09.178Z,1.26
2022-12-06T03:42:11.424Z,1.27
2022-12-06T03:45:13.762Z,1.23
2022-12-06T03:48:19.212Z,1.13
2022-12-06T03:51:22.700Z,1.16
2022-12-06T03:54:24.453Z,1.26
2022-12-06T03:57:26.227Z,1.11
2022-12-06T04:00:28.027Z,1.12
2022-12-06T04:03:31.276Z,1.11
2022-12-06T04:06:33.090Z,1.14
2022-12-06T04:09:34.750Z,1.14
2022-12-06T04:12:36.592Z,1.11
2022-12-06T04:15:39.198Z,1.16
2022-12-06T04:18:42.272Z,1.19
2022-12-06T04:21:43.854Z,1.11
2022-12-06T04:24:45.629Z,1.12
2022-12-06T04:27:47.312Z,1.28
2022-12-06T04:30:48.916Z,1.11
2022-12-06T04:33:51.994Z,1.13
2022-12-06T04:36:53.705Z,1.18
2022-12-06T04:39:55.339Z,1.18
2022-12-06T04:42:56.986Z,1.20
2022-12-06T04:45:58.905Z,1.24
2022-12-06T04:49:02.009Z,1.24
2022-12-06T04:52:03.996Z,1.26
2022-12-06T04:55:06.698Z,1.23
2022-12-06T04:58:08.349Z,1.25
2022-12-06T05:01:10.117Z,1.23
2022-12-06T05:04:13.465Z,1.27
2022-12-06T05:07:15.315Z,1.21
2022-12-06T05:10:17.267Z,1.31
2022-12-06T05:13:20.032Z,1.29
2022-12-06T05:16:21.822Z,1.25
2022-12-06T05:19:25.258Z,1.39
2022-12-06T05:22:27.043Z,1.31
2022-12-06T05:25:29.501Z,1.31
2022-12-06T05:28:31.380Z,1.35
2022-12-06T05:31:33.426Z,1.39
2022-12-06T05:34:36.597Z,1.33
2022-12-06T05:37:38.217Z,1.38
2022-12-06T05:40:39.931Z,1.29
2022-12-06T05:43:41.664Z,1.30
2022-12-06T05:46:43.412Z,1.34
2022-12-06T05:49:46.493Z,1.33
2022-12-06T05:52:48.202Z,1.28
2022-12-06T05:55:50.260Z,1.28
2022-12-06T05:58:51.932Z,1.36
2022-12-06T06:01:53.717Z,1.32
2022-12-06T06:04:57.048Z,1.37
2022-12-06T06:07:58.827Z,1.39
2022-12-06T06:11:01.493Z,1.49
2022-12-06T06:14:03.130Z,1.37
2022-12-06T06:17:04.823Z,1.38
2022-12-06T06:20:09.093Z,1.47
2022-12-06T06:23:10.753Z,1.50
2022-12-06T06:26:12.466Z,1.40
2022-12-06T06:29:14.095Z,1.47
2022-12-06T06:32:15.778Z,1.47
2022-12-06T06:35:18.972Z,1.42
2022-12-06T06:38:20.676Z,1.52
2022-12-06T06:41:22.359Z,1.55
2022-12-06T06:44:24.033Z,1.60
2022-12-06T06:47:25.703Z,1.55
2022-12-06T06:50:28.775Z,1.55
2022-12-06T06:53:30.466Z,1.45
2022-12-06T06:56:32.127Z,1.46
2022-12-06T06:59:33.907Z,1.51
2022-12-06T07:02:35.594Z,1.51
2022-12-06T07:05:38.627Z,1.51
2022-12-06T07:08:41.237Z,1.53
2022-12-06T07:11:42.938Z,1.55
2022-12-06T07:14:44.651Z,1.58
2022-12-06T07:17:46.361Z,1.57
2022-12-06T07:20:49.803Z,1.57
2022-12-06T07:23:51.576Z,1.51
2022-12-06T07:26:53.501Z,1.63
2022-12-06T07:29:55.222Z,1.63
2022-12-06T07:32:57.220Z,1.58
2022-12-06T07:36:15.618Z,1.54
2022-12-06T07:39:17.341Z,1.65
2022-12-06T07:42:19.091Z,1.49
2022-12-06T07:45:20.838Z,1.54
2022-12-06T07:48:22.563Z,1.54
2022-12-06T07:51:25.726Z,1.60
2022-12-06T07:54:27.409Z,1.68
2022-12-06T07:57:29.096Z,1.68
2022-12-06T08:00:30.884Z,1.74
2022-12-06T08:03:35.350Z,1.65
2022-12-06T08:06:38.520Z,1.69
2022-12-06T08:09:40.325Z,1.65
2022-12-06T08:12:42.002Z,1.54
2022-12-06T08:15:43.828Z,1.70
2022-12-06T08:18:47.557Z,1.80
2022-12-06T08:21:50.729Z,1.82
2022-12-06T08:24:52.511Z,1.79
2022-12-06T08:27:54.241Z,1.80
2022-12-06T08:31:02.712Z,1.75
2022-12-06T08:34:04.937Z,1.76
2022-12-06T08:37:08.008Z,1.81
2022-12-06T08:40:09.861Z,1.78
2022-12-06T08:43:11.655Z,1.75
2022-12-06T08:46:13.583Z,1.83
2022-12-06T08:49:16.862Z,1.86
2022-12-06T08:52:20.027Z,1.76
2022-12-06T08:55:21.733Z,1.79
2022-12-06T08:58:23.398Z,1.82
2022-12-06T09:01:26.752Z,1.80
2022-12-06T09:04:28.675Z,1.81
2022-12-06T09:07:31.926Z,1.80
2022-12-06T09:10:33.700Z,1.71
2022-12-06T09:13:36.316Z,2.00
2022-12-06T09:16:38.023Z,1.99
2022-12-06T09:19:39.612Z,1.98
2022-12-06T09:22:42.690Z,2.02
2022-12-06T09:25:44.323Z,2.10
2022-12-06T09:28:47.566Z,2.16
2022-12-06T09:31:49.404Z,2.15
2022-12-06T09:34:51.230Z,2.13
2022-12-06T09:37:54.431Z,2.15
2022-12-06T09:41:04.509Z,2.21
2022-12-06T09:44:14.378Z,2.25
2022-12-06T09:47:21.302Z,2.41
2022-12-06T09:50:28.449Z,2.28
2022-12-06T09:53:36.999Z,2.27
2022-12-06T09:56:42.745Z,2.34
2022-12-06T09:59:49.639Z,2.36
2022-12-06T10:03:12.028Z,2.24
2022-12-06T10:06:15.866Z,2.22
2022-12-06T10:09:25.468Z,2.15
2022-12-06T10:12:36.656Z,2.20
2022-12-06T10:15:45.265Z,2.25
2022-12-06T10:18:54.044Z,2.29
2022-12-06T10:22:04.008Z,2.38
2022-12-06T10:25:11.011Z,2.44
2022-12-06T10:28:13.521Z,2.51
2022-12-06T10:31:22.377Z,2.56
2022-12-06T10:34:32.176Z,2.58
2022-12-06T10:37:39.551Z,2.52
2022-12-06T10:40:47.599Z,2.58
2022-12-06T10:43:52.700Z,2.55
2022-12-06T10:46:57.541Z,2.55
2022-12-06T10:50:03.701Z,2.50
2022-12-06T10:53:13.144Z,2.47
2022-12-06T10:56:18.141Z,2.48
2022-12-06T10:59:30.686Z,2.46
2022-12-06T11:02:36.925Z,2.51
2022-12-06T11:05:43.233Z,2.55
2022-12-06T11:08:46.526Z,2.55
2022-12-06T11:11:50.014Z,2.47
2022-12-06T11:14:52.966Z,2.41
2022-12-06T11:18:02.527Z,2.45
2022-12-06T11:21:12.270Z,2.56
2022-12-06T11:24:21.218Z,2.68
2022-12-06T11:27:26.453Z,2.62
2022-12-06T11:30:28.956Z,2.72
2022-12-06T11:33:31.731Z,2.62
2022-12-06T11:36:33.526Z,2.57
2022-12-06T11:39:35.275Z,2.67
2022-12-06T11:42:38.394Z,2.78
2022-12-06T11:45:41.440Z,2.86
2022-12-06T11:48:43.578Z,2.97
2022-12-06T11:51:45.250Z,3.09
2022-12-06T11:54:49.911Z,3.20
2022-12-06T11:57:56.226Z,3.13
2022-12-06T12:00:59.983Z,2.98
2022-12-06T12:04:21.752Z,3.05
2022-12-06T12:07:23.985Z,2.83
2022-12-06T12:10:32.112Z,2.77
2022-12-06T12:13:35.304Z,2.68
2022-12-06T12:16:42.656Z,2.79
2022-12-06T12:19:46.880Z,2.84
2022-12-06T12:22:54.793Z,2.87
2022-12-06T12:26:00.869Z,3.02
2022-12-06T12:29:05.783Z,3.08
2022-12-06T12:32:10.467Z,3.12
2022-12-06T12:35:23.896Z,3.19
2022-12-06T12:38:32.885Z,3.20
2022-12-06T12:41:38.364Z,3.18
2022-12-06T12:44:45.953Z,3.12
2022-12-06T12:47:56.200Z,3.01
2022-12-06T12:50:58.889Z,3.07
2022-12-06T12:54:01.713Z,3.15
2022-12-06T12:57:11.281Z,3.19
2022-12-06T13:00:15.442Z,3.16
2022-12-06T13:03:53.621Z,3.27
2022-12-06T13:06:45.938Z,3.24
2022-12-06T13:09:54.845Z,3.25
2022-12-06T13:12:58.707Z,3.23
2022-12-06T13:16:02.698Z,3.29
2022-12-06T13:19:14.215Z,3.19
2022-12-06T13:22:17.899Z,3.25
2022-12-06T13:25:19.608Z,3.30
2022-12-06T13:28:26.203Z,3.15
2022-12-06T13:31:29.718Z,3.20
2022-12-06T13:34:37.767Z,3.16
2022-12-06T13:37:44.715Z,3.03
2022-12-06T13:40:48.216Z,2.85
2022-12-06T13:43:49.936Z,2.95
2022-12-06T13:47:01.995Z,3.03
2022-12-06T13:50:26.303Z,3.16
2022-12-06T13:53:28.704Z,3.17
2022-12-06T13:56:36.581Z,3.21
2022-12-06T13:59:39.045Z,3.21
2022-12-06T14:02:45.333Z,3.28
2022-12-06T14:06:03.417Z,3.31
2022-12-06T14:09:09.071Z,3.31
2022-12-06T14:12:16.739Z,3.31
2022-12-06T14:15:18.828Z,3.24
2022-12-06T14:18:22.801Z,3.21
2022-12-06T14:21:29.497Z,3.11
2022-12-06T14:24:33.575Z,3.18
2022-12-06T14:27:42.827Z,3.24
2022-12-06T14:30:44.929Z,3.25
2022-12-06T14:33:46.881Z,3.26
2022-12-06T14:36:49.930Z,3.30
2022-12-06T14:39:52.429Z,3.37
2022-12-06T14:42:57.945Z,3.37
2022-12-06T14:46:00.726Z,3.39
2022-12-06T14:49:02.596Z,3.39
2022-12-06T14:52:17.656Z,3.39
2022-12-06T14:55:19.929Z,3.34
2022-12-06T14:58:23.121Z,3.37
2022-12-06T15:01:26.571Z,3.41
2022-12-06T15:04:34.724Z,3.40
2022-12-06T15:07:42.756Z,3.43
2022-12-06T15:10:53.322Z,3.46
2022-12-06T15:14:10.661Z,3.49
2022-12-06T15:17:16.127Z,3.52
2022-12-06T15:20:17.842Z,3.48
2022-12-06T15:23:34.386Z,3.49
2022-12-06T15:26:37.536Z,3.49
2022-12-06T15:29:39.221Z,3.48
2022-12-06T15:32:40.856Z,3.53
2022-12-06T15:35:42.561Z,3.49
2022-12-06T15:38:44.280Z,3.46
2022-12-06T15:41:47.414Z,3.44
2022-12-06T15:44:50.248Z,3.40
2022-12-06T15:47:51.898Z,3.44
2022-12-06T15:50:53.604Z,3.42
2022-12-06T15:53:56.399Z,3.40
2022-12-06T15:56:59.465Z,3.39
2022-12-06T16:00:01.341Z,3.38
2022-12-06T16:03:03.035Z,3.40
2022-12-06T16:06:04.982Z,3.39
2022-12-06T16:09:06.655Z,3.38
2022-12-06T16:12:10.411Z,3.23
2022-12-06T16:15:12.099Z,3.12
2022-12-06T16:18:13.888Z,2.61
2022-12-06T16:21:18.848Z,2.58
2022-12-06T16:24:20.973Z,2.67
2022-12-06T16:27:24.019Z,2.39
2022-12-06T16:30:30.668Z,2.45
2022-12-06T16:33:32.501Z,2.36
2022-12-06T16:36:34.503Z,2.25
2022-12-06T16:39:36.292Z,2.05
2022-12-06T16:42:39.381Z,2.01
2022-12-06T16:45:43.208Z,2.07
2022-12-06T16:48:44.918Z,1.97
2022-12-06T16:51:47.466Z,2.14
2022-12-06T16:54:49.775Z,2.18
2022-12-06T16:57:53.432Z,2.23
2022-12-06T17:00:55.453Z,2.25
2022-12-06T17:03:58.443Z,2.26
2022-12-06T17:07:01.066Z,2.23
2022-12-06T17:10:03.142Z,2.31
2022-12-06T17:13:07.590Z,2.27
2022-12-06T17:16:09.998Z,2.37
2022-12-06T17:19:13.964Z,2.17
2022-12-06T17:22:16.560Z,1.89
2022-12-06T17:25:18.691Z,1.86
2022-12-06T17:28:24.833Z,1.81
2022-12-06T17:31:27.301Z,1.78
2022-12-06T17:34:29.909Z,1.70
2022-12-06T17:37:32.021Z,1.70
2022-12-06T17:40:34.484Z,1.80
2022-12-06T17:43:37.955Z,1.90
2022-12-06T17:46:40.574Z,1.92
2022-12-06T17:49:42.685Z,1.80
2022-12-06T17:52:47.855Z,1.89
2022-12-06T17:55:49.778Z,1.72
2022-12-06T17:58:53.836Z,1.83
2022-12-06T18:02:14.899Z,1.94
2022-12-06T18:05:18.274Z,1.96
2022-12-06T18:08:20.459Z,2.03
2022-12-06T18:11:23.000Z,1.97
2022-12-06T18:14:26.472Z,1.96
2022-12-06T18:17:29.364Z,1.86
2022-12-06T18:20:31.724Z,1.89
2022-12-06T18:23:34.756Z,1.98
2022-12-06T18:26:42.589Z,2.09
2022-12-06T18:29:46.636Z,2.08
2022-12-06T18:32:48.669Z,1.98
2022-12-06T18:35:51.594Z,2.00
2022-12-06T18:38:57.602Z,2.03
2022-12-06T18:41:59.701Z,2.04
2022-12-06T18:45:04.036Z,1.98
2022-12-06T18:48:09.834Z,1.97
2022-12-06T18:51:13.380Z,1.98
2022-12-06T18:54:16.021Z,2.14
2022-12-06T18:57:19.000Z,2.18
2022-12-06T19:00:23.535Z,2.29
2022-12-06T19:03:26.162Z,2.31
2022-12-06T19:06:29.899Z,2.32
2022-12-06T19:09:32.554Z,2.34
2022-12-06T19:12:34.997Z,2.40
2022-12-06T19:15:39.170Z,2.40
2022-12-06T19:18:42.016Z,2.47
2022-12-06T19:21:44.911Z,2.29
2022-12-06T19:24:48.293Z,2.31
2022-12-06T19:27:51.773Z,2.38
2022-12-06T19:31:00.573Z,2.41
2022-12-06T19:34:02.492Z,2.30
2022-12-06T19:37:05.180Z,2.21
2022-12-06T19:40:09.149Z,2.20
2022-12-06T19:43:12.873Z,2.31
2022-12-06T19:46:21.764Z,2.26
2022-12-06T19:49:26.537Z,2.24
2022-12-06T19:52:30.960Z,2.21
2022-12-06T19:55:36.879Z,2.29
2022-12-06T19:58:40.776Z,2.20
2022-12-06T20:01:46.671Z,2.16
2022-12-06T20:04:49.607Z,2.21
2022-12-06T20:07:54.537Z,2.23
2022-12-06T20:11:01.149Z,2.28
2022-12-06T20:14:05.749Z,2.24
2022-12-06T20:17:10.775Z,2.19
2022-12-06T20:20:14.018Z,2.20
2022-12-06T20:23:16.924Z,2.05
2022-12-06T20:26:19.785Z,2.23
2022-12-06T20:29:22.768Z,2.14
2022-12-06T20:32:27.352Z,2.15
2022-12-06T20:35:29.965Z,2.10
2022-12-06T20:38:33.542Z,2.17
2022-12-06T20:41:37.300Z,2.15
2022-12-06T20:44:39.495Z,2.14
2022-12-06T20:47:48.592Z,2.10
2022-12-06T20:50:51.030Z,2.10
2022-12-06T20:53:55.104Z,2.08
2022-12-06T20:56:57.769Z,2.05
2022-12-06T21:00:05.175Z,2.06
2022-12-06T21:03:11.610Z,1.97
2022-12-06T21:06:14.464Z,1.97
2022-12-06T21:09:16.524Z,1.93
2022-12-06T21:12:18.642Z,1.88
2022-12-06T21:15:20.706Z,1.91
2022-12-06T21:18:28.469Z,1.96
2022-12-06T21:21:32.549Z,1.90
2022-12-06T21:24:34.402Z,1.95
2022-12-06T21:27:36.371Z,1.84
2022-12-06T21:30:38.422Z,1.90
2022-12-06T21:33:41.943Z,1.79
2022-12-06T21:36:43.929Z,1.82
2022-12-06T21:39:45.635Z,1.88
2022-12-06T21:42:47.332Z,1.83
2022-12-06T21:45:49.043Z,1.83
2022-12-06T21:48:52.685Z,1.84
2022-12-06T21:52:00.319Z,1.95
2022-12-06T21:55:02.844Z,1.93
2022-12-06T21:58:04.491Z,1.89
2022-12-06T22:01:06.818Z,1.85
2022-12-06T22:04:09.875Z,1.93
2022-12-06T22:07:11.654Z,1.78
2022-12-06T22:10:13.370Z,1.72
2022-12-06T22:13:15.030Z,1.73
2022-12-06T22:16:16.808Z,1.78
2022-12-06T22:19:20.091Z,1.74
2022-12-06T22:22:22.033Z,1.81
2022-12-06T22:25:23.784Z,1.90
2022-12-06T22:28:25.471Z,1.81
2022-12-06T22:31:27.903Z,1.88
2022-12-06T22:34:30.984Z,1.75
2022-12-06T22:37:32.659Z,1.76
2022-12-06T22:40:34.620Z,1.78
2022-12-06T22:43:36.981Z,1.79
2022-12-06T22:46:38.757Z,1.83
2022-12-06T22:49:41.881Z,1.93
2022-12-06T22:52:43.558Z,1.91
2022-12-06T22:55:45.376Z,1.98
2022-12-06T22:58:47.481Z,2.01
2022-12-06T23:01:49.296Z,2.08
2022-12-06T23:04:52.407Z,1.83
2022-12-06T23:07:54.207Z,1.91
2022-12-06T23:11:00.076Z,1.92
2022-12-06T23:14:01.991Z,1.93
2022-12-06T23:17:03.753Z,1.90
2022-12-06T23:20:08.753Z,1.83
2022-12-06T23:23:10.478Z,2.04
2022-12-06T23:26:13.015Z,2.02
2022-12-06T23:29:15.577Z,1.99
2022-12-06T23:32:17.265Z,1.97
2022-12-06T23:35:20.321Z,2.00
2022-12-06T23:38:22.095Z,1.97
2022-12-06T23:41:24.694Z,2.03
2022-12-06T23:44:26.356Z,2.04
2022-12-06T23:47:28.050Z,1.97
2022-12-06T23:50:31.105Z,1.99
2022-12-06T23:53:32.974Z,1.86
2022-12-06T23:56:35.446Z,1.84
2022-12-06T23:59:37.083Z,1.76
